createdAt,value
2018-12-27T00:01:32.072Z,0.10
2018-12-27T00:03:58.189Z,0.06
2018-12-27T00:06:24.029Z,0.09
2018-12-27T00:08:53.028Z,0.10
2018-12-27T00:11:19.194Z,0.06
2018-12-27T00:13:48.256Z,-0.12
2018-12-27T00:16:14.078Z,-0.18
2018-12-27T00:18:40.541Z,-0.16
2018-12-27T00:21:06.917Z,-0.14
2018-12-27T00:23:35.658Z,-0.10
2018-12-27T00:26:01.477Z,-0.15
2018-12-27T00:28:30.573Z,-0.14
2018-12-27T00:30:56.401Z,-0.08
2018-12-27T00:33:25.260Z,-0.10
2018-12-27T00:35:51.094Z,-0.18
2018-12-27T00:38:17.247Z,-0.14
2018-12-27T00:40:43.103Z,-0.13
2018-12-27T00:43:09.231Z,-0.19
2018-12-27T00:45:38.411Z,-0.22
2018-12-27T00:48:04.288Z,-0.22
2018-12-27T00:50:31.605Z,-0.17
2018-12-27T00:52:57.471Z,-0.10
2018-12-27T00:55:28.353Z,-0.14
2018-12-27T00:57:54.246Z,-0.17
2018-12-27T01:00:23.411Z,-0.29
2018-12-27T01:02:50.720Z,-0.27
2018-12-27T01:05:16.804Z,-0.24
2018-12-27T01:07:42.907Z,-0.27
2018-12-27T01:10:11.560Z,-0.19
2018-12-27T01:12:37.393Z,-0.30
2018-12-27T01:15:03.275Z,-0.30
2018-12-27T01:17:29.384Z,-0.26
2018-12-27T01:19:55.566Z,-0.25
2018-12-27T01:22:24.374Z,-0.25
2018-12-27T01:24:50.219Z,-0.22
2018-12-27T01:27:18.870Z,-0.34
2018-12-27T01:29:44.810Z,-0.34
2018-12-27T01:32:13.469Z,-0.50
2018-12-27T01:34:39.415Z,-0.50
2018-12-27T01:37:06.920Z,-0.59
2018-12-27T01:39:32.762Z,-0.49
2018-12-27T01:42:01.360Z,-0.45
2018-12-27T01:44:27.194Z,-0.41
2018-12-27T01:46:57.804Z,-0.38
2018-12-27T01:49:23.641Z,-0.36
2018-12-27T01:51:49.470Z,-0.71
2018-12-27T01:54:15.321Z,-0.47
2018-12-27T01:56:41.190Z,-0.48
2018-12-27T01:59:09.777Z,-0.44
2018-12-27T02:01:35.645Z,-0.41
2018-12-27T02:04:04.474Z,-0.39
2018-12-27T02:06:30.615Z,-0.34
2018-12-27T02:08:59.579Z,-0.55
2018-12-27T02:11:25.416Z,-0.55
2018-12-27T02:13:54.020Z,-0.50
2018-12-27T02:16:20.223Z,-0.52
2018-12-27T02:18:46.495Z,-0.64
2018-12-27T02:21:12.277Z,-0.68
2018-12-27T02:23:43.290Z,-0.76
2018-12-27T02:26:09.152Z,-0.70
2018-12-27T02:28:35.089Z,-0.75
2018-12-27T02:31:00.953Z,-0.69
2018-12-27T02:33:35.078Z,-0.64
2018-12-27T02:35:54.551Z,-0.66
2018-12-27T02:38:20.632Z,-0.61
2018-12-27T02:40:47.749Z,-0.77
2018-12-27T02:43:13.613Z,-0.72
2018-12-27T02:45:44.035Z,-0.72
2018-12-27T02:48:10.096Z,-0.79
2018-12-27T02:50:38.752Z,-0.84
2018-12-27T02:53:04.574Z,-0.78
2018-12-27T02:55:31.517Z,-0.77
2018-12-27T03:00:27.832Z,-0.76
2018-12-27T03:02:53.965Z,-0.76
2018-12-27T03:05:19.923Z,-0.82
2018-12-27T03:07:45.747Z,-0.93
2018-12-27T03:10:11.932Z,-0.87
2018-12-27T03:12:40.856Z,-0.94
2018-12-27T03:15:06.678Z,-1.04
2018-12-27T03:17:35.572Z,-1.02
2018-12-27T03:20:01.705Z,-1.15
2018-12-27T03:22:27.544Z,-1.16
2018-12-27T03:24:54.211Z,-1.11
2018-12-27T03:27:22.516Z,-1.13
2018-12-27T03:29:48.312Z,-1.07
2018-12-27T03:32:18.907Z,-1.16
2018-12-27T03:34:44.741Z,-1.30
2018-12-27T03:37:13.736Z,-1.16
2018-12-27T03:39:39.580Z,-1.09
2018-12-27T03:42:05.717Z,-1.15
2018-12-27T03:44:31.570Z,-1.22
2018-12-27T03:46:57.720Z,-1.19
2018-12-27T03:49:23.556Z,-1.16
2018-12-27T03:51:49.385Z,-1.15
2018-12-27T03:54:17.705Z,-1.24
2018-12-27T03:56:43.966Z,-1.17
2018-12-27T03:59:12.653Z,-1.11
2018-12-27T04:01:38.507Z,-1.12
2018-12-27T04:04:07.471Z,-1.12
2018-12-27T04:06:33.617Z,-1.09
2018-12-27T04:09:04.102Z,-1.10
2018-12-27T04:11:29.973Z,-1.12
2018-12-27T04:13:57.204Z,-1.23
2018-12-27T04:16:23.389Z,-1.18
2018-12-27T04:18:49.477Z,-1.13
2018-12-27T04:21:15.331Z,-1.21
2018-12-27T04:23:41.292Z,-1.18
2018-12-27T04:26:10.642Z,-1.19
2018-12-27T04:28:36.455Z,-1.19
2018-12-27T04:31:03.649Z,-1.23
2018-12-27T04:33:33.532Z,-1.32
2018-12-27T04:35:59.734Z,-1.45
2018-12-27T04:38:25.598Z,-1.39
2018-12-27T04:40:54.521Z,-1.30
2018-12-27T04:43:20.723Z,-1.30
2018-12-27T04:45:49.384Z,-1.26
2018-12-27T04:48:15.477Z,-1.31
2018-12-27T04:50:44.375Z,-1.24
2018-12-27T04:53:10.542Z,-1.37
2018-12-27T04:55:36.762Z,-1.56
2018-12-27T04:58:02.630Z,-1.51
2018-12-27T05:00:28.487Z,-1.47
2018-12-27T05:02:54.712Z,-1.48
2018-12-27T05:05:20.538Z,-1.54
2018-12-27T05:07:49.394Z,-1.45
2018-12-27T05:10:15.203Z,-1.48
2018-12-27T05:12:43.919Z,-1.47
2018-12-27T05:15:09.758Z,-1.43
2018-12-27T05:17:40.276Z,-1.38
2018-12-27T05:20:06.086Z,-1.41
2018-12-27T05:22:35.012Z,-1.42
2018-12-27T05:25:00.832Z,-1.43
2018-12-27T05:27:29.955Z,-1.37
2018-12-27T05:29:55.786Z,-1.34
2018-12-27T05:32:21.647Z,-1.27
2018-12-27T05:34:47.547Z,-1.34
2018-12-27T05:37:13.329Z,-1.54
2018-12-27T05:39:42.346Z,-1.65
2018-12-27T05:42:08.187Z,-1.66
2018-12-27T05:44:34.290Z,-1.67
2018-12-27T05:47:00.135Z,-1.75
2018-12-27T05:49:29.061Z,-1.93
2018-12-27T05:51:54.871Z,-1.96
2018-12-27T05:54:23.766Z,-1.94
2018-12-27T05:56:49.642Z,-1.80
2018-12-27T05:59:17.982Z,-1.73
2018-12-27T06:01:44.124Z,-1.55
2018-12-27T06:04:15.079Z,-1.47
2018-12-27T06:06:40.894Z,-1.46
2018-12-27T06:09:06.973Z,-1.53
2018-12-27T06:11:32.846Z,-1.59
2018-12-27T06:13:58.688Z,-1.64
2018-12-27T06:16:24.631Z,-1.65
2018-12-27T06:18:50.721Z,-1.69
2018-12-27T06:21:20.191Z,-1.79
2018-12-27T06:23:46.025Z,-1.85
2018-12-27T06:26:14.380Z,-1.90
2018-12-27T06:28:40.492Z,-2.07
2018-12-27T06:31:09.479Z,-2.03
2018-12-27T06:33:36.042Z,-2.10
2018-12-27T06:36:04.964Z,-2.00
2018-12-27T06:38:30.821Z,-1.96
2018-12-27T06:40:59.914Z,-1.89
2018-12-27T06:43:25.784Z,-1.89
2018-12-27T06:45:51.615Z,-1.88
2018-12-27T06:48:17.757Z,-1.87
2018-12-27T06:50:43.892Z,-1.86
2018-12-27T06:53:12.821Z,-1.88
2018-12-27T06:55:38.652Z,-1.83
2018-12-27T06:58:04.630Z,-1.82
2018-12-27T07:00:30.502Z,-1.82
2018-12-27T07:02:59.789Z,-2.20
2018-12-27T07:05:26.816Z,-1.91
2018-12-27T07:07:56.175Z,-1.87
2018-12-27T07:10:22.029Z,-1.82
2018-12-27T07:12:50.984Z,-1.75
2018-12-27T07:15:16.803Z,-1.75
2018-12-27T07:17:45.450Z,-1.79
2018-12-27T07:20:11.278Z,-1.75
2018-12-27T07:22:37.356Z,-1.77
2018-12-27T07:25:03.767Z,-1.73
2018-12-27T07:27:29.575Z,-1.77
2018-12-27T07:29:55.417Z,-1.69
2018-12-27T07:32:21.570Z,-1.68
2018-12-27T07:34:56.481Z,-1.88
2018-12-27T07:37:20.052Z,-1.70
2018-12-27T07:39:46.163Z,-1.71
2018-12-27T07:42:12.233Z,-1.70
2018-12-27T07:44:41.397Z,-1.75
2018-12-27T07:47:07.522Z,-1.69
2018-12-27T07:49:36.252Z,-1.60
2018-12-27T07:52:02.126Z,-1.51
2018-12-27T07:54:31.130Z,-1.34
2018-12-27T07:56:57.000Z,-0.89
2018-12-27T07:59:23.170Z,-0.40
2018-12-27T08:01:49.005Z,0.11
2018-12-27T08:04:14.876Z,0.98
2018-12-27T08:06:41.035Z,1.65
2018-12-27T08:09:07.132Z,2.24
2018-12-27T08:11:36.040Z,3.39
2018-12-27T08:14:01.831Z,4.72
2018-12-27T08:16:30.505Z,5.98
2018-12-27T08:18:56.561Z,7.34
2018-12-27T08:21:25.419Z,7.64
2018-12-27T08:23:51.277Z,7.99
2018-12-27T08:26:19.921Z,8.38
2018-12-27T08:28:46.136Z,8.77
2018-12-27T08:31:17.079Z,9.43
2018-12-27T08:33:43.061Z,10.45
2018-12-27T08:36:09.175Z,10.97
2018-12-27T08:38:35.026Z,10.12
2018-12-27T08:41:01.009Z,9.44
2018-12-27T08:43:26.856Z,8.19
2018-12-27T08:45:52.987Z,6.47
2018-12-27T08:48:21.580Z,5.23
2018-12-27T08:50:48.239Z,4.26
2018-12-27T08:53:15.328Z,3.32
2018-12-27T08:55:41.176Z,2.49
2018-12-27T08:58:10.591Z,2.49
2018-12-27T09:00:37.793Z,2.21
2018-12-27T09:03:05.763Z,2.05
2018-12-27T09:05:31.998Z,2.04
2018-12-27T09:08:00.582Z,1.87
2018-12-27T09:10:26.447Z,1.76
2018-12-27T09:12:52.289Z,1.66
2018-12-27T09:15:18.140Z,1.59
2018-12-27T09:17:43.978Z,1.65
2018-12-27T09:20:12.965Z,1.77
2018-12-27T09:22:38.825Z,1.95
2018-12-27T09:25:07.895Z,2.02
2018-12-27T09:27:33.731Z,2.14
2018-12-27T09:30:01.002Z,2.15
2018-12-27T09:32:27.129Z,2.15
2018-12-27T09:34:55.596Z,2.05
2018-12-27T09:37:21.700Z,2.19
2018-12-27T09:39:52.471Z,2.11
2018-12-27T09:42:27.067Z,2.01
2018-12-27T09:44:53.289Z,2.31
2018-12-27T09:47:19.450Z,2.56
2018-12-27T09:49:45.310Z,2.81
2018-12-27T09:52:11.143Z,2.91
2018-12-27T09:54:37.284Z,3.09
2018-12-27T09:57:03.106Z,3.27
2018-12-27T09:59:28.943Z,3.12
2018-12-27T10:01:54.787Z,3.25
2018-12-27T10:04:27.776Z,3.30
2018-12-27T10:06:54.167Z,3.34
2018-12-27T10:09:19.977Z,3.38
2018-12-27T10:11:45.837Z,3.30
2018-12-27T10:14:11.660Z,3.30
2018-12-27T10:16:38.154Z,3.15
2018-12-27T10:19:03.959Z,3.66
2018-12-27T10:21:32.919Z,4.01
2018-12-27T10:23:58.739Z,5.21
2018-12-27T10:26:24.871Z,5.94
2018-12-27T10:28:50.779Z,6.28
2018-12-27T10:31:16.683Z,6.60
2018-12-27T10:33:42.540Z,7.08
2018-12-27T10:36:08.676Z,7.78
2018-12-27T10:38:37.599Z,8.41
2018-12-27T10:41:03.728Z,8.38
2018-12-27T10:43:32.434Z,8.60
2018-12-27T10:46:01.924Z,9.40
2018-12-27T10:48:28.130Z,9.80
2018-12-27T10:50:53.928Z,10.31
2018-12-27T10:53:21.412Z,11.24
2018-12-27T10:55:47.279Z,11.42
2018-12-27T10:58:15.900Z,11.45
2018-12-27T11:00:41.741Z,11.66
2018-12-27T11:03:07.608Z,11.64
2018-12-27T11:05:33.425Z,11.49
2018-12-27T11:07:59.286Z,11.26
2018-12-27T11:10:28.117Z,11.39
2018-12-27T11:12:53.981Z,10.89
2018-12-27T11:15:22.653Z,10.88
2018-12-27T11:17:48.498Z,10.96
2018-12-27T11:20:17.107Z,10.93
2018-12-27T11:22:42.953Z,10.95
2018-12-27T11:25:12.151Z,10.45
2018-12-27T11:27:38.252Z,10.34
2018-12-27T11:30:07.280Z,10.40
2018-12-27T11:32:33.510Z,10.62
2018-12-27T11:35:02.637Z,10.64
2018-12-27T11:37:28.470Z,11.18
2018-12-27T11:39:54.586Z,10.91
2018-12-27T11:42:20.430Z,10.37
2018-12-27T11:44:46.584Z,10.80
2018-12-27T11:47:13.525Z,10.61
2018-12-27T11:49:39.406Z,10.19
2018-12-27T11:52:08.274Z,9.83
2018-12-27T11:54:34.363Z,9.48
2018-12-27T11:57:03.328Z,9.84
2018-12-27T11:59:29.890Z,9.58
2018-12-27T12:01:57.349Z,9.78
2018-12-27T12:04:23.173Z,10.48
2018-12-27T12:06:51.431Z,10.56
2018-12-27T12:09:17.301Z,10.72
2018-12-27T12:11:45.643Z,10.48
2018-12-27T12:14:11.572Z,10.45
2018-12-27T12:16:37.380Z,10.52
2018-12-27T12:19:03.269Z,10.21
2018-12-27T12:21:29.092Z,10.12
2018-12-27T12:23:58.312Z,10.26
2018-12-27T12:26:24.172Z,10.20
2018-12-27T12:28:53.525Z,10.27
2018-12-27T12:31:19.662Z,10.45
2018-12-27T12:33:48.227Z,10.56
2018-12-27T12:36:14.067Z,11.03
2018-12-27T12:38:42.137Z,11.31
2018-12-27T12:41:08.192Z,11.30
2018-12-27T12:43:38.612Z,11.04
2018-12-27T12:46:04.460Z,10.86
2018-12-27T12:48:31.498Z,10.16
2018-12-27T12:50:57.323Z,10.16
2018-12-27T12:53:23.444Z,10.29
2018-12-27T12:55:49.562Z,9.95
2018-12-27T12:58:16.652Z,10.12
2018-12-27T13:00:44.162Z,9.98
2018-12-27T13:03:10.018Z,9.89
2018-12-27T13:05:38.862Z,9.95
2018-12-27T13:08:04.974Z,9.76
2018-12-27T13:10:33.561Z,9.22
2018-12-27T13:12:59.701Z,8.71
2018-12-27T13:15:28.576Z,8.66
2018-12-27T13:17:54.692Z,8.27
2018-12-27T13:20:23.540Z,7.76
2018-12-27T13:22:49.360Z,7.62
2018-12-27T13:25:17.977Z,7.76
2018-12-27T13:27:44.103Z,7.74
2018-12-27T13:30:10.034Z,7.82
2018-12-27T13:32:36.135Z,7.62
2018-12-27T13:35:02.343Z,7.73
2018-12-27T13:37:31.014Z,7.83
2018-12-27T13:39:57.135Z,7.68
2018-12-27T13:42:26.300Z,7.59
2018-12-27T13:44:52.172Z,7.36
2018-12-27T13:47:18.286Z,7.31
2018-12-27T13:49:44.134Z,7.35
2018-12-27T13:52:12.648Z,7.31
2018-12-27T13:54:38.453Z,7.18
2018-12-27T13:57:09.241Z,7.19
2018-12-27T13:59:35.064Z,7.14
2018-12-27T14:02:03.689Z,7.08
2018-12-27T14:04:29.594Z,7.01
2018-12-27T14:06:55.449Z,6.83
2018-12-27T14:09:21.299Z,6.77
2018-12-27T14:11:50.484Z,6.74
2018-12-27T14:14:16.732Z,6.60
2018-12-27T14:16:42.577Z,6.53
2018-12-27T14:19:08.522Z,6.40
2018-12-27T14:21:35.067Z,6.34
2018-12-27T14:24:03.791Z,6.27
2018-12-27T14:26:29.614Z,6.19
2018-12-27T14:29:00.113Z,5.95
2018-12-27T14:31:25.971Z,5.90
2018-12-27T14:33:54.575Z,5.76
2018-12-27T14:36:20.704Z,5.68
2018-12-27T14:38:49.897Z,5.62
2018-12-27T14:41:15.716Z,5.50
2018-12-27T14:43:41.572Z,5.39
2018-12-27T14:46:07.660Z,5.35
2018-12-27T14:48:33.516Z,5.38
2018-12-27T14:50:59.344Z,5.25
2018-12-27T14:53:25.604Z,5.13
2018-12-27T14:55:54.490Z,5.06
2018-12-27T14:58:20.577Z,4.91
2018-12-27T15:00:48.617Z,4.84
2018-12-27T15:03:14.449Z,4.80
2018-12-27T15:05:43.419Z,4.72
2018-12-27T15:08:09.924Z,4.64
2018-12-27T15:10:37.940Z,4.48
2018-12-27T15:13:03.781Z,4.39
2018-12-27T15:15:35.574Z,4.25
2018-12-27T15:18:01.409Z,4.19
2018-12-27T15:20:27.240Z,4.11
2018-12-27T15:22:53.078Z,4.09
2018-12-27T15:25:18.924Z,3.95
2018-12-27T15:27:44.759Z,3.86
2018-12-27T15:30:30.740Z,3.81
2018-12-27T15:32:56.815Z,3.67
2018-12-27T15:35:22.666Z,3.61
2018-12-27T15:37:48.785Z,3.58
2018-12-27T15:40:14.628Z,3.51
2018-12-27T15:42:40.710Z,3.49
2018-12-27T15:45:06.854Z,3.34
2018-12-27T15:47:32.722Z,3.22
2018-12-27T15:49:58.678Z,3.18
2018-12-27T15:52:26.290Z,3.29
2018-12-27T15:54:52.139Z,3.07
2018-12-27T15:57:17.987Z,2.94
2018-12-27T15:59:44.125Z,2.94
2018-12-27T16:02:10.040Z,2.82
2018-12-27T16:04:35.874Z,2.63
2018-12-27T16:07:02.263Z,2.88
2018-12-27T16:09:28.141Z,2.79
2018-12-27T16:11:55.023Z,2.81
2018-12-27T16:14:20.918Z,2.71
2018-12-27T16:16:46.777Z,2.68
2018-12-27T16:19:13.899Z,2.67
2018-12-27T16:21:40.971Z,2.67
2018-12-27T16:24:10.174Z,2.65
2018-12-27T16:26:36.293Z,2.56
2018-12-27T16:29:03.701Z,2.57
2018-12-27T16:31:29.541Z,2.59
2018-12-27T16:33:55.408Z,2.35
2018-12-27T16:36:21.239Z,2.67
2018-12-27T16:38:47.034Z,2.62
2018-12-27T16:41:15.163Z,2.60
2018-12-27T16:43:41.007Z,2.67
2018-12-27T16:46:09.328Z,2.71
2018-12-27T16:48:35.160Z,2.67
2018-12-27T16:51:01.220Z,2.57
2018-12-27T16:53:27.024Z,2.52
2018-12-27T16:55:52.842Z,2.56
2018-12-27T16:58:23.718Z,2.47
2018-12-27T17:00:49.581Z,2.51
2018-12-27T17:03:18.198Z,2.47
2018-12-27T17:05:44.302Z,2.48
2018-12-27T17:08:13.480Z,2.49
2018-12-27T17:10:39.563Z,2.47
2018-12-27T17:13:08.362Z,2.36
2018-12-27T17:15:34.185Z,2.36
2018-12-27T17:18:03.223Z,2.34
2018-12-27T17:20:29.183Z,2.30
2018-12-27T17:22:55.160Z,2.15
2018-12-27T17:25:21.263Z,2.12
2018-12-27T17:27:50.416Z,2.13
2018-12-27T17:30:16.282Z,2.08
2018-12-27T17:32:44.854Z,2.07
2018-12-27T17:35:10.718Z,2.07
2018-12-27T17:37:40.876Z,1.97
2018-12-27T17:40:06.689Z,1.97
2018-12-27T17:42:35.344Z,1.89
2018-12-27T17:45:01.190Z,1.95
2018-12-27T17:47:27.345Z,1.91
2018-12-27T17:49:53.207Z,1.80
2018-12-27T17:52:19.016Z,1.74
2018-12-27T17:54:47.743Z,1.77
2018-12-27T17:57:13.599Z,1.72
2018-12-27T17:59:40.851Z,1.68
2018-12-27T18:02:06.721Z,1.62
2018-12-27T18:04:35.737Z,1.61
2018-12-27T18:07:01.564Z,1.62
2018-12-27T18:09:30.433Z,1.63
2018-12-27T18:11:56.278Z,1.63
2018-12-27T18:14:25.406Z,1.67
2018-12-27T18:16:51.537Z,1.72
2018-12-27T18:19:20.135Z,1.69
2018-12-27T18:21:45.981Z,1.64
2018-12-27T18:24:12.090Z,1.61
2018-12-27T18:26:37.952Z,1.55
2018-12-27T18:29:03.791Z,1.49
2018-12-27T18:31:32.723Z,1.45
2018-12-27T18:33:58.907Z,1.51
2018-12-27T18:36:25.866Z,1.56
2018-12-27T18:38:52.023Z,1.55
2018-12-27T18:41:22.923Z,1.54
2018-12-27T18:43:48.766Z,1.49
2018-12-27T18:46:17.364Z,1.49
2018-12-27T18:48:43.173Z,1.48
2018-12-27T18:51:11.788Z,1.50
2018-12-27T18:53:37.872Z,1.52
2018-12-27T18:56:06.529Z,1.49
2018-12-27T18:58:32.280Z,1.55
2018-12-27T19:00:58.164Z,1.46
2018-12-27T19:03:24.320Z,1.47
2018-12-27T19:05:50.528Z,1.43
2018-12-27T19:08:16.375Z,1.42
2018-12-27T19:10:42.220Z,1.13
2018-12-27T19:13:12.738Z,1.43
2018-12-27T19:15:45.072Z,1.32
2018-12-27T19:18:23.529Z,1.30
2018-12-27T19:20:51.974Z,1.32
2018-12-27T19:23:17.823Z,1.37
2018-12-27T19:25:43.686Z,1.35
2018-12-27T19:28:09.510Z,1.39
2018-12-27T19:30:35.702Z,1.44
2018-12-27T19:33:01.570Z,1.47
2018-12-27T19:35:27.390Z,1.47
2018-12-27T19:37:53.570Z,1.45
2018-12-27T19:40:19.734Z,1.50
2018-12-27T19:42:45.855Z,1.54
2018-12-27T19:45:12.009Z,1.53
2018-12-27T19:47:38.154Z,1.57
2018-12-27T19:50:04.128Z,1.56
2018-12-27T19:52:29.959Z,1.59
2018-12-27T19:54:56.069Z,1.62
2018-12-27T19:57:22.299Z,1.62
2018-12-27T19:59:52.767Z,1.62
2018-12-27T20:02:18.854Z,1.63
2018-12-27T20:04:44.992Z,1.61
2018-12-27T20:07:10.864Z,1.62
2018-12-27T20:09:36.689Z,1.52
2018-12-27T20:12:02.547Z,1.39
2018-12-27T20:14:28.376Z,1.37
2018-12-27T20:16:54.592Z,1.48
2018-12-27T20:19:20.486Z,1.52
2018-12-27T20:21:49.028Z,1.56
2018-12-27T20:24:15.092Z,1.50
2018-12-27T20:26:43.967Z,1.54
2018-12-27T20:29:09.830Z,1.59
2018-12-27T20:31:38.421Z,1.64
2018-12-27T20:34:07.595Z,1.57
2018-12-27T20:36:33.571Z,1.53
2018-12-27T20:38:59.670Z,1.51
2018-12-27T20:41:28.889Z,1.58
2018-12-27T20:43:55.018Z,1.54
2018-12-27T20:46:20.994Z,1.53
2018-12-27T20:48:47.130Z,1.56
2018-12-27T20:51:12.984Z,1.51
2018-12-27T20:53:38.824Z,1.51
2018-12-27T20:56:04.771Z,1.38
2018-12-27T20:58:33.633Z,1.30
2018-12-27T21:00:59.465Z,1.34
2018-12-27T21:03:27.226Z,1.25
2018-12-27T21:05:53.075Z,1.25
2018-12-27T21:08:21.933Z,1.25
2018-12-27T21:10:47.755Z,1.07
2018-12-27T21:13:16.913Z,1.06
2018-12-27T21:15:42.749Z,1.03
2018-12-27T21:18:13.077Z,1.08
2018-12-27T21:20:38.932Z,1.10
2018-12-27T21:23:07.974Z,0.96
2018-12-27T21:25:33.801Z,0.92
2018-12-27T21:27:59.647Z,0.88
2018-12-27T21:30:25.730Z,0.82
2018-12-27T21:32:51.885Z,0.83
2018-12-27T21:35:17.763Z,0.86
2018-12-27T21:37:43.604Z,0.92
2018-12-27T21:40:14.667Z,0.95
2018-12-27T21:42:40.641Z,0.96
2018-12-27T21:45:09.521Z,0.91
2018-12-27T21:47:35.378Z,0.99
2018-12-27T21:50:04.385Z,1.06
2018-12-27T21:52:30.543Z,1.09
2018-12-27T21:54:56.684Z,0.98
2018-12-27T21:57:22.810Z,0.90
2018-12-27T21:59:51.484Z,0.85
2018-12-27T22:02:17.447Z,0.93
2018-12-27T22:04:43.613Z,0.97
2018-12-27T22:07:09.700Z,0.99
2018-12-27T22:09:35.789Z,1.03
2018-12-27T22:12:04.553Z,1.03
2018-12-27T22:14:30.360Z,0.83
2018-12-27T22:16:59.358Z,0.82
2018-12-27T22:19:25.492Z,0.91
2018-12-27T22:21:54.120Z,0.91
2018-12-27T22:24:19.945Z,0.98
2018-12-27T22:26:47.422Z,0.98
2018-12-27T22:29:13.242Z,1.01
2018-12-27T22:31:41.733Z,1.06
2018-12-27T22:34:07.561Z,1.07
2018-12-27T22:36:38.150Z,1.09
2018-12-27T22:39:06.104Z,1.05
2018-12-27T22:41:31.909Z,1.07
2018-12-27T22:43:57.756Z,1.13
2018-12-27T22:46:23.692Z,1.20
2018-12-27T22:48:49.816Z,1.23
2018-12-27T22:51:16.026Z,1.17
2018-12-27T22:53:45.702Z,1.19
2018-12-27T22:56:11.829Z,1.22
2018-12-27T22:58:38.078Z,1.22
2018-12-27T23:01:04.307Z,1.26
2018-12-27T23:03:33.684Z,1.11
2018-12-27T23:05:59.818Z,1.18
2018-12-27T23:08:28.687Z,1.15
2018-12-27T23:10:54.625Z,1.13
2018-12-27T23:13:21.950Z,1.11
2018-12-27T23:15:47.926Z,1.09
2018-12-27T23:18:13.749Z,1.04
2018-12-27T23:20:39.587Z,0.88
2018-12-27T23:23:11.318Z,0.87
2018-12-27T23:25:36.397Z,0.98
2018-12-27T23:28:02.351Z,0.98
2018-12-27T23:30:28.478Z,0.95
2018-12-27T23:32:57.897Z,1.00
2018-12-27T23:35:24.026Z,1.03
2018-12-27T23:37:49.853Z,0.75
2018-12-27T23:40:18.870Z,0.66
2018-12-27T23:42:44.715Z,0.56
2018-12-27T23:45:13.283Z,0.64
2018-12-27T23:47:39.123Z,0.72
2018-12-27T23:50:08.044Z,0.77
2018-12-27T23:52:34.197Z,0.73
2018-12-27T23:55:00.348Z,0.73
2018-12-27T23:57:26.165Z,0.67
2018-12-27T23:59:52.107Z,0.74
